Time;durP1;ratioP1;P1;durP2;ratioP2;P2;SDS_P1;SDS_P2;PMS_P1;PMS_P2;Temp;Humidity;BMP_temperature;BMP_pressure;BME280_temperature;BME280_humidity;BME280_pressure;Samples;Min_cycle;Max_cycle;Signal;HPM_P1;HPM_P2
2023/08/14 00:01:20;;;;;;;17.90;16.80;;;21.50;99.90;;;;;;5044039;28;20196;-53
2023/08/14 00:03:45;;;;;;;18.50;17.30;;;21.40;99.90;;;;;;5043591;28;20190;-46
2023/08/14 00:06:11;;;;;;;18.63;17.53;;;21.40;99.90;;;;;;5043838;28;20178;-51
2023/08/14 00:08:37;;;;;;;17.97;16.70;;;21.30;99.90;;;;;;5043282;28;20212;-53
2023/08/14 00:11:02;;;;;;;18.67;17.47;;;21.30;99.90;;;;;;5043751;28;20197;-55
2023/08/14 00:13:28;;;;;;;18.43;17.27;;;21.30;99.90;;;;;;5044158;28;20190;-56
2023/08/14 00:15:54;;;;;;;19.00;17.80;;;21.20;99.90;;;;;;5042678;28;20203;-51
2023/08/14 00:18:19;;;;;;;18.17;16.97;;;21.20;99.90;;;;;;5043400;28;20221;-47
2023/08/14 00:20:45;;;;;;;18.70;17.57;;;21.20;99.90;;;;;;5043634;28;20255;-56
2023/08/14 00:23:11;;;;;;;18.47;17.27;;;21.20;99.90;;;;;;5041557;28;20664;-48
2023/08/14 00:25:36;;;;;;;18.87;17.77;;;21.10;99.90;;;;;;5042350;28;20597;-56
2023/08/14 00:28:02;;;;;;;19.17;18.00;;;21.20;99.90;;;;;;5042394;28;20236;-53
2023/08/14 00:30:28;;;;;;;18.57;17.33;;;21.10;99.90;;;;;;5042854;28;20292;-54
2023/08/14 00:32:53;;;;;;;18.90;17.50;;;21.10;99.90;;;;;;5042920;28;20213;-54
2023/08/14 00:35:19;;;;;;;18.50;17.20;;;21.00;99.90;;;;;;5023880;28;20198;-54
2023/08/14 00:37:46;;;;;;;18.60;17.40;;;21.00;99.90;;;;;;5042716;28;20546;-52
2023/08/14 00:40:13;;;;;;;19.43;18.13;;;21.00;99.90;;;;;;5042470;28;20186;-55
2023/08/14 00:42:39;;;;;;;19.30;17.80;;;21.00;99.90;;;;;;5042482;28;20479;-55
2023/08/14 00:45:07;;;;;;;18.80;17.60;;;21.00;99.90;;;;;;5043257;28;20436;-54
2023/08/14 00:47:37;;;;;;;19.50;18.27;;;21.00;99.90;;;;;;5042904;28;20497;-51
2023/08/14 00:50:10;;;;;;;20.07;18.77;;;21.00;99.90;;;;;;5043366;28;20547;-56
2023/08/14 00:52:39;;;;;;;20.30;19.00;;;21.00;99.90;;;;;;5043557;28;20411;-56
2023/08/14 00:55:08;;;;;;;19.53;18.10;;;21.00;99.90;;;;;;5042685;28;20787;-51
2023/08/14 00:57:35;;;;;;;18.90;17.67;;;21.00;99.90;;;;;;5043315;28;20432;-56
2023/08/14 01:00:03;;;;;;;18.93;17.73;;;21.00;99.90;;;;;;5042706;28;20433;-53
2023/08/14 01:02:30;;;;;;;19.97;18.60;;;20.90;99.90;;;;;;5041654;28;20479;-53
2023/08/14 01:04:55;;;;;;;18.80;17.53;;;20.90;99.90;;;;;;5042047;28;20954;-53
2023/08/14 01:07:21;;;;;;;19.33;17.90;;;20.90;99.90;;;;;;5042846;28;20421;-54
2023/08/14 01:09:48;;;;;;;18.47;17.07;;;20.90;99.90;;;;;;5043024;28;20648;-55
2023/08/14 01:12:38;;;;;;;18.30;17.20;;;20.90;99.90;;;;;;5042256;28;20194;-51
2023/08/14 01:15:09;;;;;;;20.10;18.80;;;20.90;99.90;;;;;;5042977;28;20485;-49
2023/08/14 01:17:37;;;;;;;18.47;17.37;;;20.80;99.90;;;;;;5042819;28;20423;-55
2023/08/14 01:20:04;;;;;;;18.07;16.97;;;20.90;99.90;;;;;;5042534;28;20424;-52
2023/08/14 01:23:05;;;;;;;18.30;17.10;;;20.80;99.90;;;;;;5042813;28;20456;-55
2023/08/14 01:25:37;;;;;;;17.53;16.43;;;20.80;99.90;;;;;;5041210;28;20590;-56
2023/08/14 01:28:04;;;;;;;18.73;17.53;;;20.80;99.90;;;;;;5042497;28;20424;-55
2023/08/14 01:30:30;;;;;;;18.20;17.00;;;20.80;99.90;;;;;;5042048;28;20907;-54
2023/08/14 01:32:56;;;;;;;18.20;17.10;;;20.80;99.90;;;;;;5042768;28;20419;-55
2023/08/14 01:35:25;;;;;;;19.07;17.60;;;20.80;99.90;;;;;;5041800;28;20444;-55
2023/08/14 01:38:15;;;;;;;17.70;16.60;;;20.80;99.90;;;;;;5042365;28;20987;-52
2023/08/14 01:40:56;;;;;;;17.73;16.63;;;20.70;99.90;;;;;;5024084;28;20444;-53
2023/08/14 01:43:28;;;;;;;19.03;17.83;;;20.80;99.90;;;;;;5042666;28;20460;-53
2023/08/14 01:45:55;;;;;;;17.57;16.40;;;20.80;99.90;;;;;;5042360;28;20419;-55
2023/08/14 01:48:23;;;;;;;18.10;17.00;;;20.80;99.90;;;;;;5041678;28;20816;-54
2023/08/14 01:50:51;;;;;;;17.43;16.43;;;20.80;99.90;;;;;;5042012;28;20824;-48
2023/08/14 01:53:17;;;;;;;17.20;16.10;;;20.80;99.90;;;;;;5042317;28;20458;-55
2023/08/14 01:55:43;;;;;;;17.13;16.03;;;20.80;99.90;;;;;;5041752;28;20451;-51
2023/08/14 01:58:09;;;;;;;18.07;16.87;;;20.70;99.90;;;;;;5042234;28;20502;-55
2023/08/14 02:00:36;;;;;;;18.73;17.43;;;20.80;99.90;;;;;;5041671;28;20440;-52
2023/08/14 02:03:02;;;;;;;18.40;17.20;;;20.70;99.90;;;;;;5040698;28;20251;-54
2023/08/14 02:05:27;;;;;;;18.37;17.17;;;20.70;99.90;;;;;;5041544;28;20432;-55
2023/08/14 02:07:53;;;;;;;19.40;18.10;;;20.70;99.90;;;;;;5041358;28;21393;-51
2023/08/14 02:10:19;;;;;;;19.03;17.73;;;20.70;99.90;;;;;;5042316;28;20181;-54
2023/08/14 02:12:44;;;;;;;18.60;17.40;;;20.60;99.90;;;;;;5041233;28;20302;-54
2023/08/14 02:15:10;;;;;;;18.40;17.20;;;20.50;99.90;;;;;;5041720;28;20214;-56
2023/08/14 02:17:36;;;;;;;18.40;17.07;;;20.50;99.90;;;;;;5041718;28;20559;-56
2023/08/14 02:20:01;;;;;;;18.47;17.27;;;20.50;99.90;;;;;;5041422;28;20186;-55
2023/08/14 02:22:27;;;;;;;18.30;16.90;;;20.40;99.90;;;;;;5040351;28;20209;-41
2023/08/14 02:24:52;;;;;;;18.57;17.37;;;20.40;99.90;;;;;;5039698;28;20336;-41
2023/08/14 02:27:18;;;;;;;17.70;16.50;;;20.30;99.90;;;;;;5041177;28;20251;-41
2023/08/14 02:29:45;;;;;;;19.00;17.80;;;20.30;99.90;;;;;;5041460;28;20608;-43
2023/08/14 02:32:10;;;;;;;17.87;16.67;;;20.20;99.90;;;;;;5041602;28;20273;-41
2023/08/14 02:34:47;;;;;;;18.43;17.23;;;20.10;99.90;;;;;;5041235;28;20503;-41
2023/08/14 02:37:14;;;;;;;17.90;16.70;;;20.10;99.90;;;;;;5040884;28;20583;-42
2023/08/14 02:39:41;;;;;;;18.10;16.90;;;20.00;99.90;;;;;;5039468;28;20514;-41
2023/08/14 02:42:06;;;;;;;17.90;16.50;;;20.00;99.90;;;;;;5040878;28;20973;-41
2023/08/14 02:44:32;;;;;;;18.53;17.23;;;19.90;99.90;;;;;;5040318;28;20435;-42
2023/08/14 02:46:58;;;;;;;17.20;16.10;;;19.90;99.90;;;;;;5040628;28;20212;-41
2023/08/14 02:49:24;;;;;;;18.00;16.80;;;19.90;99.90;;;;;;5040625;28;20185;-41
2023/08/14 02:51:51;;;;;;;17.87;16.63;;;19.80;99.90;;;;;;5039535;28;20472;-42
2023/08/14 02:54:16;;;;;;;17.07;15.97;;;19.80;99.90;;;;;;5038603;28;20431;-43
2023/08/14 02:56:42;;;;;;;18.53;16.90;;;19.80;99.90;;;;;;5040340;28;20787;-43
2023/08/14 02:59:07;;;;;;;19.03;17.37;;;19.80;99.90;;;;;;5040124;28;20182;-40
2023/08/14 03:01:33;;;;;;;17.93;16.63;;;19.70;99.90;;;;;;5018690;28;20209;-41
2023/08/14 03:03:59;;;;;;;17.20;16.10;;;19.70;99.90;;;;;;5040524;28;20192;-42
2023/08/14 03:06:24;;;;;;;17.97;16.77;;;19.70;99.90;;;;;;5040765;28;20273;-44
2023/08/14 03:08:50;;;;;;;17.93;16.63;;;19.70;99.90;;;;;;5040732;28;20631;-41
2023/08/14 03:11:16;;;;;;;17.83;16.60;;;19.60;99.90;;;;;;5040863;28;20740;-41
2023/08/14 03:13:42;;;;;;;18.57;17.20;;;19.60;99.90;;;;;;5040073;28;20664;-40
2023/08/14 03:16:08;;;;;;;17.47;16.30;;;19.60;99.90;;;;;;5040837;28;20201;-42
2023/08/14 03:18:33;;;;;;;17.60;16.30;;;19.50;99.90;;;;;;5040775;28;20418;-41
2023/08/14 03:20:59;;;;;;;17.33;16.13;;;19.50;99.90;;;;;;5040108;28;20439;-44
2023/08/14 03:23:25;;;;;;;17.60;16.40;;;19.40;99.90;;;;;;5040469;28;20691;-44
2023/08/14 03:25:50;;;;;;;17.80;16.50;;;19.40;99.90;;;;;;5039843;28;20671;-42
2023/08/14 03:28:16;;;;;;;18.60;17.30;;;19.40;99.90;;;;;;5040570;28;20209;-42
2023/08/14 03:30:42;;;;;;;16.80;15.70;;;19.40;99.90;;;;;;5040826;28;20244;-44
2023/08/14 03:33:08;;;;;;;17.50;16.30;;;19.30;99.90;;;;;;5040612;28;20247;-42
2023/08/14 03:35:34;;;;;;;17.53;16.33;;;19.30;99.90;;;;;;5040574;28;20513;-41
2023/08/14 03:37:59;;;;;;;16.83;15.47;;;19.30;99.90;;;;;;5040003;28;20425;-44
2023/08/14 03:40:25;;;;;;;18.00;16.80;;;19.20;99.90;;;;;;5040079;28;20194;-41
2023/08/14 03:42:51;;;;;;;17.93;16.73;;;19.20;99.90;;;;;;5022238;28;20217;-42
2023/08/14 03:45:17;;;;;;;17.20;15.80;;;19.20;99.90;;;;;;5039577;28;20452;-42
2023/08/14 03:47:43;;;;;;;17.20;16.00;;;19.20;99.90;;;;;;5040512;28;21090;-43
2023/08/14 03:50:08;;;;;;;16.93;15.83;;;19.20;99.90;;;;;;5040135;28;21182;-41
2023/08/14 03:52:34;;;;;;;17.93;16.63;;;19.20;99.90;;;;;;5021481;28;20746;-43
2023/08/14 03:55:00;;;;;;;17.30;16.20;;;19.20;99.90;;;;;;5021946;28;20181;-41
2023/08/14 03:57:26;;;;;;;17.47;16.13;;;19.20;99.90;;;;;;5040500;28;20672;-43
2023/08/14 03:59:51;;;;;;;16.77;15.43;;;19.20;99.90;;;;;;5040438;28;20189;-40
2023/08/14 04:02:17;;;;;;;16.93;15.73;;;19.20;99.90;;;;;;5038468;28;20221;-42
2023/08/14 04:04:43;;;;;;;17.20;15.80;;;19.20;99.90;;;;;;5037178;28;20182;-41
2023/08/14 04:07:08;;;;;;;17.10;15.90;;;19.20;99.90;;;;;;5039676;28;20194;-41
2023/08/14 04:09:34;;;;;;;17.63;16.43;;;19.20;99.90;;;;;;5040194;28;20585;-40
2023/08/14 04:12:02;;;;;;;18.10;16.80;;;19.10;99.90;;;;;;5039284;28;20194;-43
2023/08/14 04:14:29;;;;;;;17.90;16.60;;;19.10;99.90;;;;;;5039969;28;20251;-41
2023/08/14 04:16:55;;;;;;;18.67;17.30;;;19.10;99.90;;;;;;5039887;28;21251;-41
2023/08/14 04:19:21;;;;;;;16.93;15.63;;;19.10;99.90;;;;;;5039654;28;20428;-40
2023/08/14 04:21:47;;;;;;;19.07;17.50;;;19.10;99.90;;;;;;5036163;28;20475;-40
2023/08/14 04:24:13;;;;;;;19.07;17.67;;;19.10;99.90;;;;;;5038666;28;20475;-41
2023/08/14 04:26:40;;;;;;;17.97;16.57;;;19.20;99.90;;;;;;5039499;28;21324;-54
2023/08/14 04:29:07;;;;;;;18.37;17.07;;;19.20;99.90;;;;;;5039653;28;20480;-55
2023/08/14 04:31:40;;;;;;;18.30;16.90;;;19.20;99.90;;;;;;5039300;28;20523;-49
2023/08/14 04:34:07;;;;;;;18.13;16.73;;;19.30;99.90;;;;;;5039455;28;20424;-54
2023/08/14 04:36:34;;;;;;;18.33;16.87;;;19.30;99.90;;;;;;5038644;28;20919;-56
2023/08/14 04:39:01;;;;;;;18.70;17.30;;;19.40;99.90;;;;;;5041559;28;20866;-55
2023/08/14 04:41:27;;;;;;;18.60;17.30;;;19.40;99.90;;;;;;5043546;28;20416;-54
2023/08/14 04:43:56;;;;;;;18.53;17.23;;;19.40;99.90;;;;;;5043463;28;20435;-54
2023/08/14 04:46:32;;;;;;;17.43;15.93;;;19.40;99.90;;;;;;5043787;28;20812;-53
2023/08/14 04:48:59;;;;;;;17.47;16.07;;;19.50;99.90;;;;;;5042670;28;20478;-53
2023/08/14 04:51:25;;;;;;;17.37;16.17;;;19.60;99.90;;;;;;5042603;28;20482;-56
2023/08/14 04:53:51;;;;;;;17.23;15.80;;;19.60;99.90;;;;;;5043327;28;20801;-50
2023/08/14 04:56:16;;;;;;;16.77;15.67;;;19.60;99.90;;;;;;5025394;28;20487;-54
2023/08/14 04:58:43;;;;;;;17.63;16.43;;;19.70;99.90;;;;;;5043443;28;20879;-53
2023/08/14 05:01:08;;;;;;;16.40;15.13;;;19.70;99.90;;;;;;5042768;28;20625;-55
2023/08/14 05:03:34;;;;;;;16.47;15.27;;;19.70;99.90;;;;;;5042792;28;20462;-52
2023/08/14 05:06:00;;;;;;;16.53;15.43;;;19.80;99.90;;;;;;5042601;28;20193;-53
2023/08/14 05:08:25;;;;;;;15.60;14.60;;;19.80;99.90;;;;;;5042213;28;20186;-54
2023/08/14 05:10:54;;;;;;;16.20;15.20;;;19.90;99.90;;;;;;5041871;28;20652;-53
2023/08/14 05:13:20;;;;;;;16.40;15.40;;;19.90;99.90;;;;;;5042945;28;20228;-53
2023/08/14 05:15:47;;;;;;;17.40;16.23;;;19.90;99.90;;;;;;5042698;28;20420;-54
2023/08/14 05:18:13;;;;;;;16.10;15.10;;;20.00;99.90;;;;;;5042557;28;20798;-49
2023/08/14 05:20:46;;;;;;;18.53;16.80;;;20.10;99.90;;;;;;5042449;28;20533;-55
2023/08/14 05:23:13;;;;;;;16.90;15.80;;;20.20;99.90;;;;;;5042702;28;20478;-53
2023/08/14 05:25:40;;;;;;;16.67;15.57;;;20.20;99.90;;;;;;5042753;28;20472;-55
2023/08/14 05:28:06;;;;;;;17.63;16.53;;;20.30;99.90;;;;;;5043052;28;20420;-55
2023/08/14 05:30:32;;;;;;;16.67;15.57;;;20.30;99.90;;;;;;5042743;28;20451;-55
2023/08/14 05:32:58;;;;;;;16.83;15.73;;;20.30;99.90;;;;;;5042180;28;20193;-54
2023/08/14 05:35:24;;;;;;;16.60;15.60;;;20.40;99.90;;;;;;5042155;28;20420;-55
2023/08/14 05:37:55;;;;;;;16.93;15.90;;;20.50;99.90;;;;;;5042059;28;20408;-55
2023/08/14 05:40:22;;;;;;;17.20;15.90;;;20.60;99.90;;;;;;5042309;28;21204;-50
2023/08/14 05:43:08;;;;;;;16.63;15.40;;;20.70;99.90;;;;;;5042991;28;20828;-56
2023/08/14 05:45:38;;;;;;;16.80;15.60;;;20.80;99.90;;;;;;5042565;28;20534;-51
2023/08/14 05:48:05;;;;;;;15.17;14.13;;;20.80;99.90;;;;;;5041520;28;20685;-54
2023/08/14 05:50:32;;;;;;;17.10;15.90;;;20.90;99.90;;;;;;5041707;28;20420;-55
2023/08/14 05:53:04;;;;;;;17.13;15.90;;;21.00;99.90;;;;;;5041612;28;20460;-53
2023/08/14 05:55:37;;;;;;;15.30;14.40;;;21.00;99.90;;;;;;5041552;28;20424;-53
2023/08/14 05:58:04;;;;;;;16.97;15.80;;;21.00;99.90;;;;;;5041735;28;20622;-51
2023/08/14 06:00:30;;;;;;;17.20;16.00;;;21.00;99.90;;;;;;5041302;28;21221;-54
2023/08/14 06:02:56;;;;;;;16.77;15.63;;;21.10;99.90;;;;;;5041244;28;20554;-53
2023/08/14 06:05:22;;;;;;;16.93;15.73;;;21.10;99.90;;;;;;5040179;28;20436;-55
2023/08/14 06:07:49;;;;;;;16.33;15.33;;;21.20;99.90;;;;;;5040286;28;20881;-48
2023/08/14 06:10:15;;;;;;;17.30;16.20;;;21.20;99.90;;;;;;5039782;28;20255;-55
2023/08/14 06:12:41;;;;;;;16.63;15.60;;;21.20;99.90;;;;;;5040393;28;20416;-55
2023/08/14 06:15:07;;;;;;;15.67;14.57;;;21.20;99.90;;;;;;5040676;28;20431;-54
2023/08/14 06:17:33;;;;;;;16.70;15.80;;;21.20;99.90;;;;;;5041180;28;20539;-51
2023/08/14 06:19:59;;;;;;;16.20;15.10;;;21.30;99.90;;;;;;5022554;28;20435;-55
2023/08/14 06:22:26;;;;;;;16.60;15.50;;;21.30;99.90;;;;;;5040710;28;20464;-56
2023/08/14 06:24:51;;;;;;;16.10;15.20;;;21.40;99.90;;;;;;5040437;28;20486;-55
2023/08/14 06:27:17;;;;;;;15.83;14.90;;;21.40;99.90;;;;;;5041094;28;20835;-54
2023/08/14 06:29:43;;;;;;;16.43;15.40;;;21.60;99.90;;;;;;5040990;28;20177;-54
2023/08/14 06:32:09;;;;;;;14.60;13.80;;;21.70;99.90;;;;;;5041116;28;20416;-56
2023/08/14 06:34:35;;;;;;;15.70;14.80;;;21.80;99.90;;;;;;5041036;28;20190;-55
2023/08/14 06:37:00;;;;;;;15.93;15.03;;;21.90;99.90;;;;;;5040735;28;20436;-40
2023/08/14 06:39:26;;;;;;;15.90;14.90;;;22.00;99.90;;;;;;5040955;28;20199;-42
2023/08/14 06:41:52;;;;;;;15.80;14.83;;;22.10;99.90;;;;;;5041080;28;20303;-40
2023/08/14 06:44:17;;;;;;;15.67;14.80;;;22.30;99.90;;;;;;5040906;28;20182;-43
2023/08/14 06:46:46;;;;;;;15.70;14.70;;;22.40;99.90;;;;;;5040220;28;20193;-41
2023/08/14 06:49:12;;;;;;;15.57;14.67;;;22.50;99.90;;;;;;5040830;28;20528;-43
2023/08/14 06:51:38;;;;;;;14.80;13.50;;;22.60;99.90;;;;;;5040575;28;20436;-42
2023/08/14 06:54:05;;;;;;;14.40;13.50;;;22.70;99.90;;;;;;5040248;28;20196;-42
2023/08/14 06:56:31;;;;;;;14.57;13.77;;;22.80;99.90;;;;;;5040759;28;20420;-42
2023/08/14 06:58:56;;;;;;;13.87;12.93;;;23.00;99.90;;;;;;5038069;28;20586;-39
2023/08/14 07:01:23;;;;;;;15.13;14.23;;;23.10;99.90;;;;;;5038288;28;20695;-43
2023/08/14 07:03:48;;;;;;;15.33;14.53;;;23.20;99.90;;;;;;5037916;28;20544;-43
2023/08/14 07:06:14;;;;;;;14.93;14.03;;;23.20;99.90;;;;;;5038169;28;20436;-43
2023/08/14 07:08:41;;;;;;;14.10;13.30;;;23.30;99.90;;;;;;5020237;28;21244;-42
2023/08/14 07:11:06;;;;;;;14.13;13.33;;;23.50;99.90;;;;;;5039609;28;20214;-44
2023/08/14 07:13:32;;;;;;;14.93;14.13;;;23.60;99.90;;;;;;5039249;28;20428;-42
2023/08/14 07:15:58;;;;;;;13.83;13.13;;;23.80;99.90;;;;;;5040716;28;20182;-41
2023/08/14 07:18:23;;;;;;;13.93;13.23;;;23.90;99.90;;;;;;5040621;28;20220;-41
2023/08/14 07:20:49;;;;;;;14.33;13.33;;;24.00;99.90;;;;;;5040406;28;21021;-45
2023/08/14 07:23:19;;;;;;;14.43;13.63;;;24.10;99.90;;;;;;5039766;28;20260;-42
2023/08/14 07:25:45;;;;;;;14.60;13.70;;;24.20;99.90;;;;;;5035797;28;20229;-42
2023/08/14 07:28:10;;;;;;;14.00;13.10;;;24.30;99.90;;;;;;5035936;28;20448;-42
2023/08/14 07:30:38;;;;;;;13.80;13.10;;;24.30;99.90;;;;;;5035872;28;20440;-44
2023/08/14 07:33:04;;;;;;;13.23;12.43;;;24.40;99.90;;;;;;5038501;28;20193;-44
2023/08/14 07:35:31;;;;;;;15.13;14.30;;;24.50;99.90;;;;;;5038131;28;20420;-45
2023/08/14 07:37:57;;;;;;;15.27;14.27;;;24.60;99.90;;;;;;5039069;28;20447;-40
2023/08/14 07:40:23;;;;;;;13.77;13.00;;;24.70;99.90;;;;;;5040404;28;20499;-44
2023/08/14 07:42:49;;;;;;;14.87;14.07;;;24.90;99.90;;;;;;5039597;28;21140;-43
2023/08/14 07:45:15;;;;;;;14.50;13.70;;;25.00;99.90;;;;;;5039775;28;20420;-42
2023/08/14 07:47:41;;;;;;;15.00;14.20;;;25.10;99.90;;;;;;5021271;28;20205;-44
2023/08/14 07:50:07;;;;;;;13.10;12.43;;;25.20;99.90;;;;;;5038822;28;20520;-42
2023/08/14 07:52:34;;;;;;;14.30;13.40;;;25.30;99.90;;;;;;5039628;28;20219;-43
2023/08/14 07:55:00;;;;;;;15.03;14.23;;;25.40;99.90;;;;;;5039083;28;20443;-42
2023/08/14 07:57:27;;;;;;;14.63;13.80;;;25.60;99.90;;;;;;5038744;28;21644;-47
2023/08/14 07:59:53;;;;;;;14.50;13.60;;;25.70;99.90;;;;;;5037283;28;20756;-40
2023/08/14 08:02:19;;;;;;;14.57;13.77;;;25.80;99.90;;;;;;5036892;28;20562;-42
2023/08/14 08:04:44;;;;;;;14.73;13.93;;;26.00;99.90;;;;;;5036451;28;20444;-44
2023/08/14 08:07:10;;;;;;;14.90;14.03;;;26.10;99.90;;;;;;5038595;28;20869;-42
2023/08/14 08:09:36;;;;;;;14.67;13.87;;;26.20;99.90;;;;;;5039208;28;20192;-43
2023/08/14 08:12:02;;;;;;;15.07;14.17;;;26.30;99.90;;;;;;5040622;28;20230;-44
2023/08/14 08:14:27;;;;;;;15.40;14.50;;;26.50;99.90;;;;;;5025715;28;20197;-43
2023/08/14 08:16:53;;;;;;;15.67;14.77;;;26.60;99.90;;;;;;5043808;28;20431;-54
2023/08/14 08:19:18;;;;;;;15.23;14.33;;;26.70;99.90;;;;;;5043378;28;20675;-51
2023/08/14 08:21:44;;;;;;;14.93;14.13;;;26.80;99.90;;;;;;5043869;28;20212;-56
2023/08/14 08:24:10;;;;;;;14.20;13.50;;;26.90;99.90;;;;;;5043510;28;20229;-56
2023/08/14 08:26:36;;;;;;;15.13;14.33;;;27.00;99.90;;;;;;5043909;28;20186;-57
2023/08/14 08:29:02;;;;;;;14.70;13.83;;;27.20;99.90;;;;;;5043462;28;20293;-51
2023/08/14 08:31:28;;;;;;;15.80;14.80;;;27.30;99.90;;;;;;5043507;28;20431;-55
2023/08/14 08:33:54;;;;;;;15.60;14.70;;;27.40;99.90;;;;;;5043943;28;20426;-53
2023/08/14 08:36:19;;;;;;;15.37;14.50;;;27.50;99.90;;;;;;5043356;28;20612;-54
2023/08/14 08:38:46;;;;;;;15.37;14.53;;;27.60;99.90;;;;;;5043679;28;20189;-50
2023/08/14 08:41:14;;;;;;;14.80;13.80;;;27.80;99.90;;;;;;5043636;28;20197;-56
2023/08/14 08:43:40;;;;;;;15.47;14.60;;;28.00;99.90;;;;;;5043217;28;20586;-55
2023/08/14 08:46:09;;;;;;;15.33;14.53;;;28.20;99.90;;;;;;5043296;28;20420;-43
2023/08/14 08:48:40;;;;;;;16.07;15.17;;;28.40;99.90;;;;;;5043116;28;20420;-43
2023/08/14 08:51:06;;;;;;;14.93;14.13;;;28.60;99.90;;;;;;5043373;28;20767;-50
2023/08/14 08:53:33;;;;;;;15.33;14.53;;;28.90;99.90;;;;;;5043463;28;20434;-55
2023/08/14 08:55:58;;;;;;;15.23;14.43;;;29.20;98.80;;;;;;5042952;28;20432;-55
2023/08/14 08:58:25;;;;;;;15.87;14.87;;;29.60;98.30;;;;;;5041431;28;20583;-49
2023/08/14 09:00:54;;;;;;;14.83;13.93;;;30.00;97.00;;;;;;5042479;28;20186;-55
2023/08/14 09:03:20;;;;;;;16.37;15.50;;;30.50;94.60;;;;;;5043182;28;20517;-54
2023/08/14 09:05:46;;;;;;;15.20;14.30;;;30.70;92.70;;;;;;5043048;28;21149;-51
2023/08/14 09:08:12;;;;;;;14.13;13.43;;;30.90;91.10;;;;;;5043124;28;20189;-54
2023/08/14 09:10:37;;;;;;;15.03;14.30;;;30.70;81.50;;;;;;5042208;28;20587;-44
2023/08/14 09:13:03;;;;;;;14.70;13.90;;;30.90;81.60;;;;;;5041876;28;20178;-44
2023/08/14 09:15:29;;;;;;;14.73;14.03;;;30.90;78.60;;;;;;5042942;28;20534;-41
2023/08/14 09:17:55;;;;;;;14.77;13.97;;;30.80;77.40;;;;;;5042699;28;20419;-55
2023/08/14 09:20:21;;;;;;;15.90;15.10;;;31.30;78.20;;;;;;5043084;28;21196;-51
2023/08/14 09:22:47;;;;;;;14.87;14.17;;;31.40;73.80;;;;;;5042234;28;20275;-49
2023/08/14 09:25:14;;;;;;;14.93;14.13;;;31.30;73.80;;;;;;5041850;28;20590;-53
2023/08/14 09:27:42;;;;;;;15.80;14.97;;;31.10;74.00;;;;;;5042525;28;20672;-55
2023/08/14 09:30:11;;;;;;;15.53;14.73;;;31.20;75.40;;;;;;5043090;28;20963;-50
2023/08/14 09:32:37;;;;;;;15.57;14.67;;;31.30;77.00;;;;;;5041736;28;20420;-55
2023/08/14 09:35:03;;;;;;;15.80;15.00;;;31.80;75.80;;;;;;5021673;28;20477;-54
2023/08/14 09:37:29;;;;;;;14.80;14.00;;;32.60;72.70;;;;;;5042525;28;20419;-54
2023/08/14 09:40:07;;;;;;;15.60;14.80;;;33.40;68.40;;;;;;5042274;28;20452;-54
2023/08/14 09:42:34;;;;;;;14.27;13.57;;;33.90;63.30;;;;;;5042127;28;20499;-52
2023/08/14 09:45:00;;;;;;;14.80;14.10;;;34.20;59.90;;;;;;5023895;28;20539;-52
2023/08/14 09:47:26;;;;;;;14.10;13.47;;;34.30;57.30;;;;;;5042512;28;20453;-53
2023/08/14 09:49:56;;;;;;;14.80;14.10;;;34.20;55.90;;;;;;5041941;28;20486;-53
2023/08/14 09:52:24;;;;;;;15.17;14.37;;;34.10;55.70;;;;;;5042105;28;20182;-54
2023/08/14 09:54:50;;;;;;;15.10;14.13;;;34.40;56.60;;;;;;5041957;28;20424;-56
2023/08/14 09:57:16;;;;;;;14.50;13.80;;;34.90;54.80;;;;;;5040203;28;21517;-55
2023/08/14 09:59:42;;;;;;;14.87;14.17;;;35.00;51.40;;;;;;5039750;28;20440;-55
2023/08/14 10:02:13;;;;;;;14.67;13.97;;;35.40;51.90;;;;;;5041383;28;20507;-55
2023/08/14 10:04:42;;;;;;;15.13;14.43;;;35.80;49.20;;;;;;5041549;28;20447;-53
2023/08/14 10:07:09;;;;;;;14.80;14.10;;;36.30;46.40;;;;;;5041873;28;20412;-53
2023/08/14 10:09:40;;;;;;;14.00;13.30;;;36.70;45.50;;;;;;5041881;28;20445;-53
2023/08/14 10:12:11;;;;;;;14.63;13.80;;;36.80;45.80;;;;;;5041079;28;20436;-55
2023/08/14 10:14:39;;;;;;;14.40;13.77;;;37.20;42.50;;;;;;5041501;28;20511;-51
2023/08/14 10:17:21;;;;;;;15.47;14.67;;;37.20;41.50;;;;;;5041268;28;20430;-53
2023/08/14 10:19:51;;;;;;;14.40;13.60;;;36.80;41.90;;;;;;5041340;28;20913;-56
2023/08/14 10:22:19;;;;;;;14.70;13.90;;;36.90;43.60;;;;;;5041535;28;20515;-52
2023/08/14 10:24:45;;;;;;;14.13;13.43;;;37.00;42.80;;;;;;5040352;28;20459;-53
2023/08/14 10:27:11;;;;;;;14.00;13.30;;;37.10;42.50;;;;;;5041409;28;20794;-55
2023/08/14 10:29:38;;;;;;;15.13;14.33;;;36.80;43.00;;;;;;5041316;28;20481;-51
2023/08/14 10:32:05;;;;;;;13.63;13.00;;;36.50;43.70;;;;;;5041102;28;20420;-54
2023/08/14 10:34:32;;;;;;;14.93;14.17;;;36.40;43.40;;;;;;5041230;28;20447;-53
2023/08/14 10:36:58;;;;;;;15.27;14.27;;;36.20;43.50;;;;;;5041428;28;20431;-54
2023/08/14 10:39:36;;;;;;;14.40;13.50;;;36.20;44.00;;;;;;5041161;28;20420;-54
2023/08/14 10:42:05;;;;;;;15.53;14.83;;;36.00;43.90;;;;;;5041411;28;20209;-52
2023/08/14 10:44:34;;;;;;;14.80;14.00;;;35.70;43.50;;;;;;5041031;28;20469;-53
2023/08/14 10:47:07;;;;;;;13.97;13.20;;;35.10;43.10;;;;;;5040926;28;20413;-54
2023/08/14 10:49:46;;;;;;;14.97;14.17;;;35.00;45.30;;;;;;5041046;28;20439;-52
2023/08/14 10:52:16;;;;;;;15.77;14.77;;;34.60;45.30;;;;;;5006968;28;20424;-55
2023/08/14 10:54:48;;;;;;;16.23;15.43;;;34.00;46.10;;;;;;5040632;28;20431;-55
2023/08/14 10:57:14;;;;;;;15.87;15.00;;;33.70;47.30;;;;;;5040855;28;20529;-54
2023/08/14 10:59:43;;;;;;;15.80;14.90;;;33.30;48.90;;;;;;5040191;28;21819;-56
2023/08/14 11:02:09;;;;;;;15.83;15.03;;;33.10;49.80;;;;;;5040297;28;20218;-55
2023/08/14 11:04:39;;;;;;;15.73;14.83;;;32.80;50.60;;;;;;5040528;28;20416;-53
2023/08/14 11:07:08;;;;;;;15.30;14.60;;;32.40;51.30;;;;;;5041064;28;20180;-54
2023/08/14 11:09:36;;;;;;;14.97;14.27;;;31.90;51.60;;;;;;5040491;28;20412;-50
2023/08/14 11:12:07;;;;;;;14.47;13.77;;;31.60;53.40;;;;;;5040823;28;20978;-55
2023/08/14 11:14:36;;;;;;;14.37;13.50;;;31.40;54.70;;;;;;5040394;28;20498;-56
2023/08/14 11:17:02;;;;;;;14.80;14.00;;;31.10;54.90;;;;;;5041011;28;20554;-53
2023/08/14 11:19:28;;;;;;;15.57;14.77;;;31.00;56.10;;;;;;5040149;28;20416;-52
2023/08/14 11:21:54;;;;;;;15.00;14.27;;;30.80;56.80;;;;;;5038538;28;20475;-55
2023/08/14 11:24:20;;;;;;;14.40;13.60;;;30.70;58.40;;;;;;5040136;28;20559;-55
2023/08/14 11:26:45;;;;;;;15.47;14.67;;;30.70;60.40;;;;;;5040502;28;20189;-53
2023/08/14 11:29:11;;;;;;;14.90;14.10;;;30.50;61.10;;;;;;5038858;28;20182;-53
2023/08/14 11:31:36;;;;;;;14.13;13.33;;;30.40;63.10;;;;;;5040020;28;20189;-54
2023/08/14 11:34:02;;;;;;;14.60;13.90;;;30.40;64.40;;;;;;5039695;28;20655;-51
2023/08/14 11:36:28;;;;;;;15.13;14.20;;;30.40;65.30;;;;;;5040314;28;20687;-52
2023/08/14 11:38:54;;;;;;;15.00;14.10;;;30.30;64.40;;;;;;5040330;28;20220;-54
2023/08/14 11:41:19;;;;;;;14.47;13.77;;;30.10;65.80;;;;;;5040416;28;20182;-54
2023/08/14 11:43:45;;;;;;;14.87;14.17;;;29.90;67.70;;;;;;5040321;28;20248;-51
2023/08/14 11:46:12;;;;;;;14.43;13.73;;;29.80;69.90;;;;;;5041510;28;20612;-56
2023/08/14 11:48:38;;;;;;;14.80;14.00;;;29.80;72.00;;;;;;5046722;28;20209;-53
2023/08/14 11:51:05;;;;;;;15.40;14.60;;;29.80;73.20;;;;;;5046785;28;20404;-55
2023/08/14 11:53:32;;;;;;;14.70;13.90;;;29.70;74.40;;;;;;5046836;28;20573;-53
2023/08/14 11:55:58;;;;;;;15.90;15.00;;;29.70;76.90;;;;;;5046726;28;20412;-56
2023/08/14 11:58:23;;;;;;;15.20;14.40;;;29.90;77.20;;;;;;5044695;28;20439;-56
2023/08/14 12:00:50;;;;;;;14.87;14.07;;;29.90;76.90;;;;;;5046278;28;20498;-54
2023/08/14 12:03:19;;;;;;;15.33;14.53;;;29.90;76.30;;;;;;5028584;28;20245;-55
2023/08/14 12:05:59;;;;;;;14.73;13.93;;;29.80;76.40;;;;;;5028299;28;20405;-50
2023/08/14 12:08:27;;;;;;;16.20;15.37;;;29.90;78.50;;;;;;5046897;28;20499;-56
2023/08/14 12:10:52;;;;;;;14.83;14.03;;;29.70;78.70;;;;;;5028616;28;20435;-54
2023/08/14 12:13:21;;;;;;;15.50;14.70;;;29.80;80.40;;;;;;5046950;28;20427;-55
2023/08/14 12:15:47;;;;;;;15.27;14.47;;;29.80;79.20;;;;;;5046874;28;20189;-53
2023/08/14 12:18:21;;;;;;;15.93;15.10;;;29.80;79.20;;;;;;5044313;28;20989;-55
2023/08/14 12:20:54;;;;;;;15.43;14.63;;;29.80;79.70;;;;;;5045562;28;20500;-55
2023/08/14 12:23:22;;;;;;;16.47;15.57;;;29.90;81.30;;;;;;5044653;28;20781;-54
2023/08/14 12:25:49;;;;;;;15.90;14.97;;;30.00;82.40;;;;;;5045785;28;20547;-43
2023/08/14 12:28:14;;;;;;;16.63;15.77;;;30.30;80.90;;;;;;5045012;28;20439;-54